AKST,Max TemperatureF,Mean TemperatureF,Min TemperatureF,Max Dew PointF,MeanDew PointF,Min DewpointF,Max Humidity, Mean Humidity, Min Humidity, Max Sea Level PressureIn, Mean Sea Level PressureIn, Min Sea Level PressureIn, Max VisibilityMiles, Mean VisibilityMiles, Min VisibilityMiles, Max Wind SpeedMPH, Mean Wind SpeedMPH, Max Gust SpeedMPH,PrecipitationIn, CloudCover, Events, WindDirDegrees
2013-11-1,42,40,37,37,32,30,87,74,61,30.13,30.02,29.84,10,10,8,24,12,34,0.13,4,,285
2013-11-2,51,44,37,45,40,36,100,79,62,29.83,29.53,29.44,10,9,4,28,13,41,0.46,6,,156
2013-11-3,44,42,39,41,39,36,93,87,76,29.59,29.47,29.35,10,10,7,12,4,18,0.09,6,,99
2013-11-4,44,42,37,39,37,34,100,82,71,29.80,29.38,29.28,10,10,9,31,6,44,0.00,8,,288
2013-11-5,41,39,37,34,30,25,87,70,56,30.19,30.07,29.81,10,10,5,30,19,43,0.02,5,,287
2013-11-6,48,40,33,43,34,27,93,79,62,30.13,29.84,29.56,10,9,5,28,4,39,0.49,4,,140
2013-11-7,44,40,37,37,32,27,87,69,57,30.10,29.79,29.54,10,10,4,29,14,44,0.06,7,,281
2013-11-8,50,44,39,41,37,32,87,73,58,30.33,30.25,30.11,10,10,7,20,9,34,0.04,6,,290
2013-11-9,50,44,39,43,38,36,87,79,71,30.34,30.24,30.04,10,10,10,10,2,16,0.00,2,,59
2013-11-10,51,43,35,43,34,25,87,76,60,30.16,30.01,29.86,10,10,3,23,12,34,0.06,7,,285
2013-11-11,35,34,32,30,24,18,93,67,52,30.36,30.29,30.16,10,8,2,24,14,34,0.01,6,,284
2013-11-12,46,40,33,43,30,21,100,77,56,30.32,30.25,30.17,10,9,5,22,13,34,0.10,5,,273
2013-11-13,57,50,44,48,44,41,87,81,71,30.46,30.36,30.21,10,10,10,24,15,34,0.00,5,,288
2013-11-14,55,50,46,48,45,43,93,82,72,30.39,30.29,30.22,10,10,3,25,13,36,0.01,7,,295
2013-11-15,50,47,44,45,42,37,93,83,71,30.23,30.20,30.17,10,9,4,29,19,43,0.03,7,,289
2013-11-16,44,38,33,37,25,18,81,62,52,30.48,30.41,30.23,10,10,10,25,17,37,0.00,4,,295
2013-11-17,33,28,24,21,19,14,74,64,55,30.46,30.42,30.38,10,10,10,20,10,25,0.00,1,,290
2013-11-18,26,24,23,18,14,10,74,64,54,30.40,30.34,30.29,10,10,10,17,11,23,0.00,1,,256
2013-11-19,28,26,23,28,21,14,100,80,64,30.28,30.13,29.94,10,9,2,15,7,18,0.00,3,,263
2013-11-20,35,32,28,34,31,27,100,96,87,29.93,29.66,29.53,9,3,1,20,4,30,0.71,8,,61
2013-11-21,33,30,26,34,29,16,100,88,64,29.53,29.27,29.10,10,6,1,28,15,39,0.44,8,,282
2013-11-22,32,28,23,19,16,9,74,61,50,29.54,29.42,29.32,10,10,10,23,13,34,0.00,3,,237
2013-11-23,39,34,28,37,23,12,100,67,41,29.78,29.70,29.54,10,9,2,22,9,26,0.24,4,,165
2013-11-24,42,40,37,43,40,36,100,93,87,29.68,29.55,29.49,10,5,2,25,15,43,4.49,8,,133
2013-11-25,42,40,39,41,38,36,100,93,87,29.77,29.64,29.57,10,9,5,18,10,23,2.25,8,,81
2013-11-26,39,38,37,37,33,30,93,81,75,30.04,29.92,29.78,10,10,10,17,7,28,0.00,6,,268
2013-11-27,37,35,33,32,29,27,81,74,65,30.05,30.01,29.94,10,10,10,16,10,22,0.00,1,,263
2013-11-28,33,27,21,27,14,7,80,62,43,30.23,30.07,29.94,10,10,10,18,12,24,0.00,1,,273
2013-11-29,35,30,24,27,19,7,80,64,46,30.32,30.23,30.18,10,10,10,25,14,33,0.00,2,,275
2013-11-30,32,28,24,21,16,10,69,61,47,30.43,30.38,30.33,10,10,10,25,13,32,0.00,0,,262